sensor_id;sensor_type;location;lat;lon;timestamp;pressure;altitude;pressure_sealevel;temperature;humidity
35619;BME280;21743;55.786;37.168;2022-08-14T00:01:09;100183.88;;;17.54;71.87
35619;BME280;21743;55.786;37.168;2022-08-14T00:03:35;100184.69;;;17.54;71.70
35619;BME280;21743;55.786;37.168;2022-08-14T00:06:02;100188.97;;;17.55;71.58
35619;BME280;21743;55.786;37.168;2022-08-14T00:08:29;100185.69;;;17.53;71.86
35619;BME280;21743;55.786;37.168;2022-08-14T00:10:58;100188.03;;;17.48;71.66
35619;BME280;21743;55.786;37.168;2022-08-14T00:13:25;100178.66;;;17.46;72.02
35619;BME280;21743;55.786;37.168;2022-08-14T00:15:57;100173.97;;;17.41;71.86
35619;BME280;21743;55.786;37.168;2022-08-14T00:18:25;100180.00;;;17.42;72.00
35619;BME280;21743;55.786;37.168;2022-08-14T00:20:51;100183.84;;;17.39;71.97
35619;BME280;21743;55.786;37.168;2022-08-14T00:23:17;100178.28;;;17.34;72.10
35619;BME280;21743;55.786;37.168;2022-08-14T00:25:46;100178.28;;;17.34;71.98
35619;BME280;21743;55.786;37.168;2022-08-14T00:28:13;100182.91;;;17.32;72.28
35619;BME280;21743;55.786;37.168;2022-08-14T00:30:39;100183.25;;;17.29;72.14
35619;BME280;21743;55.786;37.168;2022-08-14T00:33:06;100177.09;;;17.14;72.57
35619;BME280;21743;55.786;37.168;2022-08-14T00:35:32;100191.06;;;17.14;72.80
35619;BME280;21743;55.786;37.168;2022-08-14T00:37:58;100181.38;;;17.15;72.75
35619;BME280;21743;55.786;37.168;2022-08-14T00:40:24;100185.81;;;17.14;72.69
35619;BME280;21743;55.786;37.168;2022-08-14T00:42:50;100181.53;;;17.13;72.84
35619;BME280;21743;55.786;37.168;2022-08-14T00:45:17;100189.44;;;17.13;72.71
35619;BME280;21743;55.786;37.168;2022-08-14T00:47:45;100183.34;;;17.13;72.60
35619;BME280;21743;55.786;37.168;2022-08-14T00:50:15;100173.22;;;17.10;72.58
35619;BME280;21743;55.786;37.168;2022-08-14T00:52:44;100189.44;;;17.13;72.78
35619;BME280;21743;55.786;37.168;2022-08-14T00:55:10;100186.38;;;17.10;72.80
35619;BME280;21743;55.786;37.168;2022-08-14T00:57:36;100183.09;;;17.08;73.07
35619;BME280;21743;55.786;37.168;2022-08-14T01:00:10;100191.16;;;17.06;73.19
35619;BME280;21743;55.786;37.168;2022-08-14T01:02:41;100183.09;;;17.08;72.99
35619;BME280;21743;55.786;37.168;2022-08-14T01:05:09;100186.06;;;17.05;73.06
35619;BME280;21743;55.786;37.168;2022-08-14T01:07:51;100191.84;;;17.00;73.19
35619;BME280;21743;55.786;37.168;2022-08-14T01:10:25;100181.03;;;16.95;73.18
35619;BME280;21743;55.786;37.168;2022-08-14T01:13:12;100185.34;;;16.88;73.07
35619;BME280;21743;55.786;37.168;2022-08-14T01:15:51;100188.63;;;16.90;73.43
35619;BME280;21743;55.786;37.168;2022-08-14T01:18:18;100188.31;;;16.85;73.45
35619;BME280;21743;55.786;37.168;2022-08-14T01:21:04;100183.88;;;16.85;73.48
35619;BME280;21743;55.786;37.168;2022-08-14T01:23:43;100186.34;;;16.87;73.26
35619;BME280;21743;55.786;37.168;2022-08-14T01:26:09;100191.94;;;16.84;73.30
35619;BME280;21743;55.786;37.168;2022-08-14T01:28:37;100193.56;;;16.85;73.18
35619;BME280;21743;55.786;37.168;2022-08-14T01:31:12;100181.59;;;16.82;73.24
35619;BME280;21743;55.786;37.168;2022-08-14T01:33:41;100185.41;;;16.80;73.43
35619;BME280;21743;55.786;37.168;2022-08-14T01:36:10;100188.19;;;16.78;73.25
35619;BME280;21743;55.786;37.168;2022-08-14T01:38:37;100189.53;;;16.74;73.35
35619;BME280;21743;55.786;37.168;2022-08-14T01:41:09;100200.38;;;16.71;73.33
35619;BME280;21743;55.786;37.168;2022-08-14T01:43:49;100188.25;;;16.62;73.65
35619;BME280;21743;55.786;37.168;2022-08-14T01:46:22;100194.00;;;16.66;73.68
35619;BME280;21743;55.786;37.168;2022-08-14T01:48:49;100193.00;;;16.67;73.46
35619;BME280;21743;55.786;37.168;2022-08-14T01:51:19;100189.75;;;16.65;73.56
35619;BME280;21743;55.786;37.168;2022-08-14T01:53:50;100192.38;;;16.65;73.61
35619;BME280;21743;55.786;37.168;2022-08-14T01:56:17;100195.19;;;16.63;73.67
35619;BME280;21743;55.786;37.168;2022-08-14T01:58:47;100198.94;;;16.61;74.06
35619;BME280;21743;55.786;37.168;2022-08-14T02:01:20;100195.31;;;16.62;73.84
35619;BME280;21743;55.786;37.168;2022-08-14T02:03:46;100185.47;;;16.56;73.90
35619;BME280;21743;55.786;37.168;2022-08-14T02:06:12;100196.63;;;16.58;73.79
35619;BME280;21743;55.786;37.168;2022-08-14T02:08:39;100196.81;;;16.56;73.97
35619;BME280;21743;55.786;37.168;2022-08-14T02:11:09;100191.56;;;16.56;74.05
35619;BME280;21743;55.786;37.168;2022-08-14T02:13:49;100196.69;;;16.49;74.81
35619;BME280;21743;55.786;37.168;2022-08-14T02:16:17;100199.09;;;16.67;74.08
35619;BME280;21743;55.786;37.168;2022-08-14T02:18:44;100198.56;;;16.72;73.59
35619;BME280;21743;55.786;37.168;2022-08-14T02:21:11;100200.88;;;16.67;73.74
35619;BME280;21743;55.786;37.168;2022-08-14T02:23:39;100200.75;;;16.60;73.87
35619;BME280;21743;55.786;37.168;2022-08-14T02:26:16;100197.13;;;16.61;74.10
35619;BME280;21743;55.786;37.168;2022-08-14T02:28:42;100202.88;;;16.57;74.11
35619;BME280;21743;55.786;37.168;2022-08-14T02:31:08;100196.31;;;16.52;74.32
35619;BME280;21743;55.786;37.168;2022-08-14T02:33:36;100199.59;;;16.54;74.28
35619;BME280;21743;55.786;37.168;2022-08-14T02:36:03;100198.44;;;16.57;74.43
35619;BME280;21743;55.786;37.168;2022-08-14T02:38:29;100201.91;;;16.58;74.70
35619;BME280;21743;55.786;37.168;2022-08-14T02:40:58;100203.06;;;16.55;74.40
35619;BME280;21743;55.786;37.168;2022-08-14T02:43:24;100202.56;;;16.51;74.45
35619;BME280;21743;55.786;37.168;2022-08-14T02:45:57;100204.91;;;16.46;74.75
35619;BME280;21743;55.786;37.168;2022-08-14T02:48:23;100202.63;;;16.43;74.95
35619;BME280;21743;55.786;37.168;2022-08-14T02:50:57;100212.31;;;16.43;74.90
35619;BME280;21743;55.786;37.168;2022-08-14T02:53:23;100211.81;;;16.47;75.17
35619;BME280;21743;55.786;37.168;2022-08-14T02:55:49;100210.44;;;16.51;74.92
35619;BME280;21743;55.786;37.168;2022-08-14T02:58:16;100216.19;;;16.55;74.85
35619;BME280;21743;55.786;37.168;2022-08-14T03:00:44;100215.03;;;16.58;74.99
35619;BME280;21743;55.786;37.168;2022-08-14T03:03:10;100211.91;;;16.62;74.92
35619;BME280;21743;55.786;37.168;2022-08-14T03:05:35;100212.59;;;16.64;74.86
35619;BME280;21743;55.786;37.168;2022-08-14T03:08:12;100213.84;;;16.68;74.82
35619;BME280;21743;55.786;37.168;2022-08-14T03:10:38;100212.69;;;16.71;75.02
35619;BME280;21743;55.786;37.168;2022-08-14T03:13:04;100213.50;;;16.79;74.85
35619;BME280;21743;55.786;37.168;2022-08-14T03:15:31;100209.34;;;16.85;74.83
35619;BME280;21743;55.786;37.168;2022-08-14T03:18:12;100204.72;;;16.87;74.60
35619;BME280;21743;55.786;37.168;2022-08-14T03:20:38;100209.97;;;16.95;74.46
35619;BME280;21743;55.786;37.168;2022-08-14T03:23:04;100209.75;;;16.97;74.43
35619;BME280;21743;55.786;37.168;2022-08-14T03:25:34;100202.19;;;17.02;74.32
35619;BME280;21743;55.786;37.168;2022-08-14T03:28:07;100208.56;;;17.07;74.47
35619;BME280;21743;55.786;37.168;2022-08-14T03:30:34;100208.84;;;17.12;74.36
35619;BME280;21743;55.786;37.168;2022-08-14T03:33:07;100204.41;;;17.13;74.44
35619;BME280;21743;55.786;37.168;2022-08-14T03:35:33;100196.50;;;17.13;74.50
35619;BME280;21743;55.786;37.168;2022-08-14T03:38:09;100207.00;;;17.21;74.69
35619;BME280;21743;55.786;37.168;2022-08-14T03:40:38;100204.53;;;17.19;74.88
35619;BME280;21743;55.786;37.168;2022-08-14T03:43:08;100205.81;;;17.23;74.84
35619;BME280;21743;55.786;37.168;2022-08-14T03:45:36;100214.16;;;17.27;74.94
35619;BME280;21743;55.786;37.168;2022-08-14T03:48:13;100210.53;;;17.28;74.64
35619;BME280;21743;55.786;37.168;2022-08-14T03:50:52;100211.00;;;17.32;75.18
35619;BME280;21743;55.786;37.168;2022-08-14T03:53:18;100197.03;;;17.31;75.21
35619;BME280;21743;55.786;37.168;2022-08-14T03:55:45;100209.16;;;17.40;75.10
35619;BME280;21743;55.786;37.168;2022-08-14T03:58:12;100203.50;;;17.43;75.25
35619;BME280;21743;55.786;37.168;2022-08-14T04:00:39;100203.28;;;17.53;75.20
35619;BME280;21743;55.786;37.168;2022-08-14T04:03:07;100200.00;;;17.51;75.26
35619;BME280;21743;55.786;37.168;2022-08-14T04:05:35;100203.84;;;17.63;75.40
35619;BME280;21743;55.786;37.168;2022-08-14T04:08:04;100207.44;;;17.70;75.47
35619;BME280;21743;55.786;37.168;2022-08-14T04:10:30;100209.53;;;17.75;75.77
35619;BME280;21743;55.786;37.168;2022-08-14T04:12:56;100210.63;;;17.80;75.75
35619;BME280;21743;55.786;37.168;2022-08-14T04:15:28;100211.53;;;17.87;75.46
35619;BME280;21743;55.786;37.168;2022-08-14T04:17:53;100211.19;;;17.90;75.62
35619;BME280;21743;55.786;37.168;2022-08-14T04:20:20;100208.75;;;18.04;75.63
35619;BME280;21743;55.786;37.168;2022-08-14T04:22:47;100217.69;;;18.17;75.36
35619;BME280;21743;55.786;37.168;2022-08-14T04:25:15;100204.41;;;18.25;75.26
35619;BME280;21743;55.786;37.168;2022-08-14T04:27:40;100212.31;;;18.40;75.25
35619;BME280;21743;55.786;37.168;2022-08-14T04:30:06;100209.81;;;18.53;75.24
35619;BME280;21743;55.786;37.168;2022-08-14T04:32:32;100214.66;;;18.65;75.30
35619;BME280;21743;55.786;37.168;2022-08-14T04:35:02;100211.38;;;18.77;75.40
35619;BME280;21743;55.786;37.168;2022-08-14T04:37:28;100209.34;;;18.94;74.78
35619;BME280;21743;55.786;37.168;2022-08-14T04:40:13;100211.94;;;19.09;74.39
35619;BME280;21743;55.786;37.168;2022-08-14T04:42:58;100215.88;;;19.19;74.23
35619;BME280;21743;55.786;37.168;2022-08-14T04:45:42;100203.81;;;19.31;73.54
35619;BME280;21743;55.786;37.168;2022-08-14T04:48:11;100201.28;;;19.45;73.23
35619;BME280;21743;55.786;37.168;2022-08-14T04:50:39;100199.59;;;19.58;72.69
35619;BME280;21743;55.786;37.168;2022-08-14T04:53:05;100198.47;;;19.67;72.56
35619;BME280;21743;55.786;37.168;2022-08-14T04:55:31;100199.13;;;19.76;72.06
35619;BME280;21743;55.786;37.168;2022-08-14T04:57:58;100196.59;;;19.89;71.47
35619;BME280;21743;55.786;37.168;2022-08-14T05:00:24;100195.44;;;19.98;70.89
35619;BME280;21743;55.786;37.168;2022-08-14T05:02:51;100184.88;;;19.98;70.66
35619;BME280;21743;55.786;37.168;2022-08-14T05:05:16;100196.41;;;20.25;70.35
35619;BME280;21743;55.786;37.168;2022-08-14T05:07:42;100194.22;;;20.35;69.42
35619;BME280;21743;55.786;37.168;2022-08-14T05:10:08;100188.38;;;20.40;69.08
35619;BME280;21743;55.786;37.168;2022-08-14T05:12:34;100192.66;;;20.48;68.33
35619;BME280;21743;55.786;37.168;2022-08-14T05:15:01;100193.31;;;20.56;68.37
35619;BME280;21743;55.786;37.168;2022-08-14T05:17:27;100198.22;;;20.59;68.06
35619;BME280;21743;55.786;37.168;2022-08-14T05:19:53;100195.38;;;20.67;67.92
35619;BME280;21743;55.786;37.168;2022-08-14T05:22:19;100190.75;;;20.76;67.35
35619;BME280;21743;55.786;37.168;2022-08-14T05:24:47;100181.66;;;20.92;67.38
35619;BME280;21743;55.786;37.168;2022-08-14T05:27:14;100184.13;;;21.06;67.35
35619;BME280;21743;55.786;37.168;2022-08-14T05:29:40;100181.91;;;21.30;66.33
35619;BME280;21743;55.786;37.168;2022-08-14T05:32:09;100178.06;;;21.52;65.38
35619;BME280;21743;55.786;37.168;2022-08-14T05:34:35;100165.81;;;21.58;64.59
35619;BME280;21743;55.786;37.168;2022-08-14T05:37:01;100172.94;;;21.70;63.98
35619;BME280;21743;55.786;37.168;2022-08-14T05:39:28;100178.84;;;21.72;63.86
35619;BME280;21743;55.786;37.168;2022-08-14T05:41:54;100168.66;;;21.69;64.18
35619;BME280;21743;55.786;37.168;2022-08-14T05:44:21;100177.63;;;21.75;63.73
35619;BME280;21743;55.786;37.168;2022-08-14T05:46:47;100176.41;;;21.77;63.44
35619;BME280;21743;55.786;37.168;2022-08-14T05:49:13;100168.66;;;21.76;63.16
35619;BME280;21743;55.786;37.168;2022-08-14T05:51:40;100175.97;;;21.87;62.05
35619;BME280;21743;55.786;37.168;2022-08-14T05:54:08;100168.03;;;21.94;61.99
35619;BME280;21743;55.786;37.168;2022-08-14T05:56:34;100174.94;;;22.08;61.83
35619;BME280;21743;55.786;37.168;2022-08-14T05:59:00;100171.88;;;22.11;61.55
35619;BME280;21743;55.786;37.168;2022-08-14T06:01:25;100166.34;;;22.19;61.65
35619;BME280;21743;55.786;37.168;2022-08-14T06:03:51;100170.97;;;22.37;60.75
35619;BME280;21743;55.786;37.168;2022-08-14T06:06:17;100166.28;;;22.45;59.92
35619;BME280;21743;55.786;37.168;2022-08-14T06:08:43;100172.13;;;22.54;59.79
35619;BME280;21743;55.786;37.168;2022-08-14T06:11:09;100162.13;;;22.56;59.72
35619;BME280;21743;55.786;37.168;2022-08-14T06:13:40;100169.22;;;22.62;59.97
35619;BME280;21743;55.786;37.168;2022-08-14T06:16:08;100164.53;;;22.64;58.71
35619;BME280;21743;55.786;37.168;2022-08-14T06:18:34;100162.03;;;22.76;58.30
35619;BME280;21743;55.786;37.168;2022-08-14T06:21:02;100160.78;;;22.85;58.06
35619;BME280;21743;55.786;37.168;2022-08-14T06:23:29;100165.25;;;22.91;58.25
35619;BME280;21743;55.786;37.168;2022-08-14T06:25:55;100171.47;;;23.03;58.00
35619;BME280;21743;55.786;37.168;2022-08-14T06:28:24;100165.50;;;23.08;57.34
35619;BME280;21743;55.786;37.168;2022-08-14T06:30:50;100158.75;;;23.12;57.30
35619;BME280;21743;55.786;37.168;2022-08-14T06:33:18;100167.22;;;23.27;57.01
35619;BME280;21743;55.786;37.168;2022-08-14T06:35:45;100160.16;;;23.39;56.70
35619;BME280;21743;55.786;37.168;2022-08-14T06:38:16;100163.94;;;23.57;57.78
35619;BME280;21743;55.786;37.168;2022-08-14T06:40:43;100162.19;;;23.69;57.64
35619;BME280;21743;55.786;37.168;2022-08-14T06:43:11;100154.53;;;23.79;55.99
35619;BME280;21743;55.786;37.168;2022-08-14T06:45:38;100162.75;;;23.96;54.52
35619;BME280;21743;55.786;37.168;2022-08-14T06:48:19;100154.53;;;24.15;54.62
35619;BME280;21743;55.786;37.168;2022-08-14T06:50:46;100157.22;;;24.34;54.23
35619;BME280;21743;55.786;37.168;2022-08-14T06:53:13;100147.44;;;24.46;53.18
35619;BME280;21743;55.786;37.168;2022-08-14T06:55:41;100154.00;;;24.62;52.90
35619;BME280;21743;55.786;37.168;2022-08-14T06:58:15;100150.47;;;24.79;51.89
35619;BME280;21743;55.786;37.168;2022-08-14T07:00:45;100157.41;;;24.99;52.22
35619;BME280;21743;55.786;37.168;2022-08-14T07:03:30;100152.31;;;25.09;51.92
35619;BME280;21743;55.786;37.168;2022-08-14T07:06:15;100156.75;;;25.27;51.23
35619;BME280;21743;55.786;37.168;2022-08-14T07:08:42;100147.72;;;25.39;51.03
35619;BME280;21743;55.786;37.168;2022-08-14T07:11:09;100138.81;;;25.45;50.01
35619;BME280;21743;55.786;37.168;2022-08-14T07:13:35;100144.06;;;25.64;49.76
35619;BME280;21743;55.786;37.168;2022-08-14T07:16:00;100146.03;;;25.80;48.22
35619;BME280;21743;55.786;37.168;2022-08-14T07:18:28;100135.94;;;25.93;46.16
35619;BME280;21743;55.786;37.168;2022-08-14T07:20:56;100138.91;;;26.09;46.77
35619;BME280;21743;55.786;37.168;2022-08-14T07:23:22;100144.56;;;26.24;46.47
35619;BME280;21743;55.786;37.168;2022-08-14T07:25:52;100140.47;;;26.33;45.14
35619;BME280;21743;55.786;37.168;2022-08-14T07:28:21;100140.31;;;26.51;45.15
35619;BME280;21743;55.786;37.168;2022-08-14T07:30:51;100144.44;;;26.59;45.63
35619;BME280;21743;55.786;37.168;2022-08-14T07:33:20;100138.25;;;26.70;45.62
35619;BME280;21743;55.786;37.168;2022-08-14T07:35:46;100136.34;;;26.82;45.46
35619;BME280;21743;55.786;37.168;2022-08-14T07:38:17;100138.25;;;26.99;44.15
35619;BME280;21743;55.786;37.168;2022-08-14T07:40:45;100139.22;;;27.09;44.27
35619;BME280;21743;55.786;37.168;2022-08-14T07:43:11;100138.16;;;27.10;44.30
35619;BME280;21743;55.786;37.168;2022-08-14T07:45:38;100138.81;;;27.17;44.06
35619;BME280;21743;55.786;37.168;2022-08-14T07:48:05;100140.50;;;27.23;43.22
35619;BME280;21743;55.786;37.168;2022-08-14T08:03:08;100140.06;;;28.74;40.16
35619;BME280;21743;55.786;37.168;2022-08-14T08:05:36;100136.56;;;28.68;40.17
35619;BME280;21743;55.786;37.168;2022-08-14T08:08:03;100134.53;;;28.54;39.35
35619;BME280;21743;55.786;37.168;2022-08-14T08:10:29;100134.00;;;28.30;41.24
35619;BME280;21743;55.786;37.168;2022-08-14T08:13:04;100135.59;;;28.26;40.31
35619;BME280;21743;55.786;37.168;2022-08-14T08:15:35;100136.53;;;28.42;38.64
35619;BME280;21743;55.786;37.168;2022-08-14T08:18:03;100134.06;;;28.62;39.65
35619;BME280;21743;55.786;37.168;2022-08-14T08:20:32;100134.31;;;28.82;38.62
35619;BME280;21743;55.786;37.168;2022-08-14T08:22:59;100139.25;;;28.95;38.76
35619;BME280;21743;55.786;37.168;2022-08-14T08:25:27;100132.69;;;29.13;37.40
35619;BME280;21743;55.786;37.168;2022-08-14T08:28:18;100133.47;;;29.09;38.85
35619;BME280;21743;55.786;37.168;2022-08-14T08:30:49;100133.41;;;29.03;38.78
35619;BME280;21743;55.786;37.168;2022-08-14T08:33:19;100132.34;;;29.04;38.17
35619;BME280;21743;55.786;37.168;2022-08-14T08:35:46;100134.19;;;28.99;37.30
35619;BME280;21743;55.786;37.168;2022-08-14T08:38:14;100131.50;;;28.99;38.00
35619;BME280;21743;55.786;37.168;2022-08-14T08:40:47;100126.78;;;29.11;37.50
35619;BME280;21743;55.786;37.168;2022-08-14T08:43:26;100132.78;;;28.91;38.21
35619;BME280;21743;55.786;37.168;2022-08-14T08:48:29;100117.91;;;28.25;38.60
35619;BME280;21743;55.786;37.168;2022-08-14T08:51:00;100126.59;;;27.93;39.75
35619;BME280;21743;55.786;37.168;2022-08-14T08:53:31;100123.31;;;27.70;40.10
35619;BME280;21743;55.786;37.168;2022-08-14T08:55:58;100125.97;;;27.53;40.36
35619;BME280;21743;55.786;37.168;2022-08-14T08:58:24;100126.22;;;27.51;41.39
35619;BME280;21743;55.786;37.168;2022-08-14T09:00:54;100123.19;;;27.59;40.82
35619;BME280;21743;55.786;37.168;2022-08-14T09:03:24;100119.47;;;27.82;40.98
35619;BME280;21743;55.786;37.168;2022-08-14T09:05:55;100112.75;;;28.01;39.49
35619;BME280;21743;55.786;37.168;2022-08-14T09:08:24;100119.69;;;28.19;39.55
35619;BME280;21743;55.786;37.168;2022-08-14T09:10:50;100112.84;;;28.28;38.41
35619;BME280;21743;55.786;37.168;2022-08-14T09:13:17;100114.50;;;28.34;38.60
35619;BME280;21743;55.786;37.168;2022-08-14T09:15:46;100113.06;;;28.49;39.45
35619;BME280;21743;55.786;37.168;2022-08-14T09:18:15;100119.47;;;28.48;38.72
35619;BME280;21743;55.786;37.168;2022-08-14T09:20:43;100116.56;;;28.27;38.88
35619;BME280;21743;55.786;37.168;2022-08-14T09:23:11;100114.47;;;28.08;39.59
35619;BME280;21743;55.786;37.168;2022-08-14T09:25:39;100112.03;;;28.06;40.17
35619;BME280;21743;55.786;37.168;2022-08-14T09:28:06;100118.50;;;28.10;40.15
35619;BME280;21743;55.786;37.168;2022-08-14T09:30:34;100114.81;;;28.16;40.00
35619;BME280;21743;55.786;37.168;2022-08-14T09:41:09;100108.84;;;28.31;38.91
35619;BME280;21743;55.786;37.168;2022-08-14T09:46:26;100107.72;;;28.27;37.76
35619;BME280;21743;55.786;37.168;2022-08-14T09:49:04;100111.84;;;28.34;38.00
35619;BME280;21743;55.786;37.168;2022-08-14T09:51:32;100107.53;;;28.33;38.77
35619;BME280;21743;55.786;37.168;2022-08-14T09:54:05;100109.00;;;28.19;37.90
35619;BME280;21743;55.786;37.168;2022-08-14T09:56:44;100101.47;;;27.94;38.90
35619;BME280;21743;55.786;37.168;2022-08-14T09:59:13;100107.72;;;27.83;38.49
35619;BME280;21743;55.786;37.168;2022-08-14T10:01:40;100107.78;;;27.88;38.71
35619;BME280;21743;55.786;37.168;2022-08-14T10:04:19;100107.78;;;27.88;37.89
35619;BME280;21743;55.786;37.168;2022-08-14T10:06:48;100101.63;;;27.88;38.41
35619;BME280;21743;55.786;37.168;2022-08-14T10:09:14;100098.47;;;27.91;37.88
35619;BME280;21743;55.786;37.168;2022-08-14T10:11:40;100103.50;;;27.87;38.56
35619;BME280;21743;55.786;37.168;2022-08-14T10:14:17;100106.34;;;27.81;38.23
35619;BME280;21743;55.786;37.168;2022-08-14T10:16:46;100117.66;;;27.66;38.98
35619;BME280;21743;55.786;37.168;2022-08-14T10:19:14;100104.78;;;27.63;39.71
35619;BME280;21743;55.786;37.168;2022-08-14T10:21:42;100109.63;;;27.66;40.57
35619;BME280;21743;55.786;37.168;2022-08-14T10:24:09;100114.16;;;27.65;40.79
35619;BME280;21743;55.786;37.168;2022-08-14T10:26:36;100112.00;;;27.62;40.69
35619;BME280;21743;55.786;37.168;2022-08-14T10:29:09;100112.13;;;27.56;40.27
35619;BME280;21743;55.786;37.168;2022-08-14T10:31:37;100112.06;;;27.51;41.15
35619;BME280;21743;55.786;37.168;2022-08-14T10:34:06;100106.47;;;27.52;41.04
35619;BME280;21743;55.786;37.168;2022-08-14T10:36:35;100097.38;;;27.53;41.98
35619;BME280;21743;55.786;37.168;2022-08-14T10:39:07;100095.97;;;27.62;41.68
35619;BME280;21743;55.786;37.168;2022-08-14T10:41:36;100095.44;;;27.65;40.95
35619;BME280;21743;55.786;37.168;2022-08-14T10:44:08;100093.56;;;27.66;42.25
35619;BME280;21743;55.786;37.168;2022-08-14T10:46:53;100083.44;;;27.68;40.83
35619;BME280;21743;55.786;37.168;2022-08-14T10:49:28;100098.44;;;27.69;41.33
35619;BME280;21743;55.786;37.168;2022-08-14T10:51:56;100095.53;;;27.71;40.09
35619;BME280;21743;55.786;37.168;2022-08-14T10:54:42;100096.81;;;27.68;39.02
35619;BME280;21743;55.786;37.168;2022-08-14T10:57:23;100100.31;;;27.69;38.32
35619;BME280;21743;55.786;37.168;2022-08-14T11:00:00;100094.47;;;27.72;39.47
35619;BME280;21743;55.786;37.168;2022-08-14T11:02:33;100093.72;;;27.76;39.51
35619;BME280;21743;55.786;37.168;2022-08-14T11:07:30;100098.44;;;27.69;37.92
35619;BME280;21743;55.786;37.168;2022-08-14T11:09:59;100089.59;;;27.69;38.44
35619;BME280;21743;55.786;37.168;2022-08-14T11:12:37;100091.53;;;27.73;38.48
35619;BME280;21743;55.786;37.168;2022-08-14T11:15:03;100088.88;;;27.73;39.43
35619;BME280;21743;55.786;37.168;2022-08-14T11:17:30;100085.94;;;27.75;37.39
35619;BME280;21743;55.786;37.168;2022-08-14T11:19:58;100092.91;;;27.76;39.66
35619;BME280;21743;55.786;37.168;2022-08-14T11:22:29;100088.13;;;27.78;40.45
35619;BME280;21743;55.786;37.168;2022-08-14T11:25:04;100088.78;;;27.68;40.17
35619;BME280;21743;55.786;37.168;2022-08-14T11:27:32;100086.88;;;27.63;39.05
35619;BME280;21743;55.786;37.168;2022-08-14T11:30:01;100083.22;;;27.53;40.85
35619;BME280;21743;55.786;37.168;2022-08-14T11:32:28;100087.63;;;27.42;39.82
35619;BME280;21743;55.786;37.168;2022-08-14T11:35:01;100090.72;;;27.34;39.34
35619;BME280;21743;55.786;37.168;2022-08-14T11:37:28;100088.78;;;27.29;40.62
35619;BME280;21743;55.786;37.168;2022-08-14T11:39:55;100084.97;;;27.25;39.67
35619;BME280;21743;55.786;37.168;2022-08-14T11:42:23;100087.31;;;27.22;41.06
35619;BME280;21743;55.786;37.168;2022-08-14T11:44:52;100093.06;;;27.14;40.58
35619;BME280;21743;55.786;37.168;2022-08-14T11:47:18;100080.63;;;27.03;41.62
35619;BME280;21743;55.786;37.168;2022-08-14T11:49:45;100081.91;;;27.00;40.80
35619;BME280;21743;55.786;37.168;2022-08-14T11:52:13;100078.78;;;26.91;40.94
35619;BME280;21743;55.786;37.168;2022-08-14T11:54:40;100087.03;;;26.90;39.44
35619;BME280;21743;55.786;37.168;2022-08-14T11:57:13;100080.59;;;26.86;40.46
35619;BME280;21743;55.786;37.168;2022-08-14T11:59:39;100082.44;;;26.85;40.95
35619;BME280;21743;55.786;37.168;2022-08-14T12:04:35;100081.31;;;26.81;41.22
35619;BME280;21743;55.786;37.168;2022-08-14T12:07:06;100082.94;;;26.82;42.27
35619;BME280;21743;55.786;37.168;2022-08-14T12:09:37;100075.97;;;26.81;42.28
35619;BME280;21743;55.786;37.168;2022-08-14T12:12:25;100077.09;;;26.85;41.77
35619;BME280;21743;55.786;37.168;2022-08-14T12:14:58;100075.88;;;26.93;41.39
35619;BME280;21743;55.786;37.168;2022-08-14T12:17:27;100083.53;;;27.01;40.87
35619;BME280;21743;55.786;37.168;2022-08-14T12:19:59;100077.63;;;26.99;41.75
35619;BME280;21743;55.786;37.168;2022-08-14T12:24:57;100073.44;;;26.75;42.92
35619;BME280;21743;55.786;37.168;2022-08-14T12:27:42;100076.44;;;26.78;43.02
35619;BME280;21743;55.786;37.168;2022-08-14T12:30:12;100069.00;;;26.80;41.67
35619;BME280;21743;55.786;37.168;2022-08-14T12:35:41;100067.38;;;26.79;42.99
35619;BME280;21743;55.786;37.168;2022-08-14T12:38:11;100060.91;;;26.75;43.71
35619;BME280;21743;55.786;37.168;2022-08-14T12:40:48;100069.41;;;26.72;42.79
35619;BME280;21743;55.786;37.168;2022-08-14T12:43:15;100064.53;;;26.69;43.95
35619;BME280;21743;55.786;37.168;2022-08-14T12:45:46;100065.75;;;26.61;44.70
35619;BME280;21743;55.786;37.168;2022-08-14T12:48:17;100069.69;;;26.59;45.53
35619;BME280;21743;55.786;37.168;2022-08-14T12:50:44;100058.03;;;26.48;44.12
35619;BME280;21743;55.786;37.168;2022-08-14T12:53:11;100059.91;;;26.48;42.49
35619;BME280;21743;55.786;37.168;2022-08-14T12:55:39;100067.09;;;26.47;44.94
35619;BME280;21743;55.786;37.168;2022-08-14T12:58:06;100068.13;;;26.46;43.44
35619;BME280;21743;55.786;37.168;2022-08-14T13:00:36;100053.00;;;26.35;43.67
35619;BME280;21743;55.786;37.168;2022-08-14T13:03:03;100064.34;;;26.42;44.62
35619;BME280;21743;55.786;37.168;2022-08-14T13:05:33;100064.81;;;26.39;44.77
35619;BME280;21743;55.786;37.168;2022-08-14T13:08:04;100060.44;;;26.33;46.45
35619;BME280;21743;55.786;37.168;2022-08-14T13:10:32;100067.53;;;26.27;46.14
35619;BME280;21743;55.786;37.168;2022-08-14T13:12:59;100061.28;;;26.22;45.47
35619;BME280;21743;55.786;37.168;2022-08-14T13:15:25;100063.72;;;26.23;47.27
35619;BME280;21743;55.786;37.168;2022-08-14T13:17:53;100054.22;;;26.16;48.17
35619;BME280;21743;55.786;37.168;2022-08-14T13:20:23;100055.25;;;26.15;49.11
35619;BME280;21743;55.786;37.168;2022-08-14T13:22:49;100067.19;;;26.24;50.37
35619;BME280;21743;55.786;37.168;2022-08-14T13:25:18;100056.84;;;26.27;51.63
35619;BME280;21743;55.786;37.168;2022-08-14T13:27:47;100053.03;;;26.23;51.32